Suula — OJKZ — position and weather

sailwx.info

Track history (hours):
 
Tides and Currents Weather Stations Pressure Air Temp Water Temp Dewpoint Dewpoint Depression Visibility Wind Speed Wind Dir Waves Ship Positions

Suula

Last reported at 2017-Feb-21 06:06 UTC. Time now 2017-Feb-21 12:18 UTC.
Position N 56°07' E 016°52'.

Length 140 m; draft 6.5 m.

Type: Tanker. MMSI: 230956996.

Date/timePositionNaut miles runAvg speedWind from/ knotsBaromVisibWave heightAir tempDewpointWater temp
2017-Feb-21 06:06N 56°07' E 016°52'814.0
2017-Feb-21 05:33N 56°02' E 016°41'1413.8
2017-Feb-21 04:34N 55°55' E 016°19'1414.0
2017-Feb-21 03:33N 55°49' E 015°57'1414.1
2017-Feb-21 02:33N 55°42' E 015°35'1414.1
2017-Feb-21 01:33N 55°34' E 015°14'1414.1
2017-Feb-21 00:33N 55°27' E 014°53'1413.9
2017-Feb-20 23:33N 55°19' E 014°33'1414.1
2017-Feb-20 22:34N 55°08' E 014°17'1313.3
2017-Feb-20 21:33N 54°59' E 013°60'1413.8
2017-Feb-20 20:33N 54°55' E 013°37'2713.7
2017-Feb-20 18:33N 54°46' E 012°52'1413.8
2017-Feb-20 17:34N 54°39' E 012°31'1713.3
2017-Feb-20 16:17N 54°26' E 012°13'1013.9
2017-Feb-20 15:33N 54°25' E 011°56'1413.8
2017-Feb-20 14:33N 54°29' E 011°33'1414.4
2017-Feb-20 13:33N 54°35' E 011°11'1413.7
2017-Feb-20 12:33N 54°43' E 010°52'1413.6
2017-Feb-20 11:34N 54°57' E 010°56'1413.7
2017-Feb-20 10:34N 55°10' E 011°03'4 0.2
2017-Feb-19 08:30N 55°13' E 011°06'1212.8
2017-Feb-19 07:33N 55°02' E 011°02'1212.2
2017-Feb-19 06:33N 54°51' E 010°53'1211.6
2017-Feb-19 05:33N 54°40' E 011°00'1313.0
2017-Feb-19 04:33N 54°33' E 011°20'1513.2
2017-Feb-19 03:25N 54°27' E 011°43'1213.2
2017-Feb-19 02:31N 54°27' E 012°03'1010.8
2017-Feb-19 01:34N 54°35' E 012°15'1312.8
2017-Feb-19 00:34N 54°43' E 012°32'4013.4
2017-Feb-18 21:33N 54°58' E 013°36'1313.2
2017-Feb-18 20:33N 55°03' E 013°58'1313.0
2017-Feb-18 19:33N 55°12' E 014°14'1413.6
2017-Feb-18 18:34N 55°22' E 014°30'1413.6
2017-Feb-18 17:33N 55°30' E 014°49'1413.8
2017-Feb-18 16:34N 55°37' E 015°10'1413.7
2017-Feb-18 15:33N 55°44' E 015°31'1413.8
2017-Feb-18 14:33N 55°51' E 015°52'1413.6
2017-Feb-18 13:33N 55°58' E 016°14'1413.7
2017-Feb-18 12:33N 56°05' E 016°35'1413.6
2017-Feb-18 11:33N 56°13' E 016°55'1413.7
2017-Feb-18 10:33N 56°21' E 017°14'1614.0
2017-Feb-18 09:24N 56°31' E 017°38'1314.3
2017-Feb-18 08:30N 56°38' E 017°56'25014.0
2017-Feb-17 14:33N 59°39' E 023°25'1414.0
2017-Feb-17 13:32N 59°43' E 023°52'62 3.0
2017-Feb-16 17:15N 60°18' E 025°33'0 0.0
2017-Feb-16 16:04N 60°18' E 025°33'2 3.8
2017-Feb-16 15:26N 60°16' E 025°32'5 4.3
2017-Feb-16 14:14N 60°12' E 025°37'5 5.9
2017-Feb-16 13:21N 60°16' E 025°33'2 1.2
2017-Feb-16 11:30N 60°18' E 025°33'0 0.0
2017-Feb-16 10:24N 60°18' E 025°33'0 0.0
2017-Feb-16 01:06N 60°18' E 025°33'0 0.0
2017-Feb-16 00:15N 60°18' E 025°33'0 0.4
2017-Feb-15 23:30N 60°18' E 025°33'14 1.2
2017-Feb-15 12:25N 60°11' E 025°57'1011.2
2017-Feb-15 11:33N 60°16' E 026°14'1413.6
2017-Feb-15 10:33N 60°21' E 026°40'1414.2
2017-Feb-15 09:34N 60°21' E 027°08'1110.6
2017-Feb-15 08:33N 60°31' E 027°10'0 0.0
2017-Feb-15 07:33N 60°31' E 027°10'0 0.0
2017-Feb-15 06:33N 60°31' E 027°10'0 0.0
2017-Feb-15 05:33N 60°31' E 027°10'0 0.0
2017-Feb-15 04:33N 60°31' E 027°10'0 0.0
2017-Feb-15 03:33N 60°31' E 027°10'0 0.0
2017-Feb-15 02:33N 60°31' E 027°10'0 0.0
2017-Feb-15 01:33N 60°31' E 027°10'0 0.0
2017-Feb-15 00:33N 60°31' E 027°10'0 0.0
2017-Feb-14 23:33N 60°31' E 027°10'0 0.0
2017-Feb-14 22:33N 60°31' E 027°10'0 0.0
2017-Feb-14 21:33N 60°31' E 027°10'0 0.0
2017-Feb-14 20:30N 60°31' E 027°10'0 0.0
2017-Feb-14 19:33N 60°31' E 027°10'0 0.0
2017-Feb-14 18:33N 60°31' E 027°10'0 0.0
2017-Feb-14 17:33N 60°31' E 027°10'0 0.0
2017-Feb-14 16:33N 60°31' E 027°10'0 0.0
2017-Feb-14 15:33N 60°31' E 027°10'0 0.0
2017-Feb-14 14:33N 60°31' E 027°10'0 0.0
2017-Feb-14 13:33N 60°31' E 027°10'0 0.0
2017-Feb-14 12:33N 60°31' E 027°10'0 0.0
2017-Feb-14 11:30N 60°31' E 027°10'0 0.0
2017-Feb-14 10:33N 60°31' E 027°10'0 0.0
2017-Feb-14 09:33N 60°31' E 027°10'0 0.0
2017-Feb-14 08:33N 60°31' E 027°10'0 0.0
2017-Feb-14 07:33N 60°31' E 027°10'0 0.0
2017-Feb-14 06:33N 60°31' E 027°10'0 0.0
2017-Feb-14 05:32N 60°31' E 027°10'0 0.0
2017-Feb-14 04:32N 60°31' E 027°10'0 0.0
2017-Feb-14 03:32N 60°31' E 027°10'0 0.0
2017-Feb-14 02:32N 60°31' E 027°10'0 0.0
2017-Feb-14 01:32N 60°31' E 027°10'0 0.0
2017-Feb-14 00:32N 60°31' E 027°10'0 0.0
2017-Feb-13 23:32N 60°31' E 027°10'0 0.4
2017-Feb-13 22:33N 60°31' E 027°10'0 0.2
2017-Feb-13 21:33N 60°31' E 027°10'0 0.0
2017-Feb-13 20:33N 60°31' E 027°10'0 0.0
2017-Feb-13 19:33N 60°31' E 027°10'0 0.0
2017-Feb-13 18:33N 60°31' E 027°10'0 0.0
2017-Feb-13 17:33N 60°31' E 027°10'0 0.0
2017-Feb-13 16:33N 60°31' E 027°10'0 0.0
2017-Feb-13 15:33N 60°31' E 027°10'0 0.0
2017-Feb-13 14:33N 60°31' E 027°10'0 0.0
2017-Feb-13 13:33N 60°31' E 027°10'0 0.0
2017-Feb-13 12:30N 60°31' E 027°10'0 0.0
2017-Feb-13 11:33N 60°31' E 027°10'0 0.0
2017-Feb-13 10:33N 60°31' E 027°10'1 0.5
2017-Feb-13 09:33N 60°31' E 027°09'1010.4
2017-Feb-13 08:33N 60°21' E 027°00'1413.8
2017-Feb-13 07:33N 60°18' E 026°33'1615.0
2017-Feb-13 06:31N 60°06' E 026°13'18 0.8
2017-Feb-12 09:05N 60°10' E 025°38'7 7.1
2017-Feb-12 08:05N 60°04' E 025°35'6 7.8
2017-Feb-12 07:17N 59°58' E 025°29'4812.8
2017-Feb-12 03:33N 59°40' E 024°02'1515.5
2017-Feb-12 02:33N 59°35' E 023°33'6215.0
2017-Feb-11 22:26N 59°30' E 021°31'5915.3
2017-Feb-11 18:34N 59°48' E 019°39'1616.0
2017-Feb-11 17:33N 60°00' E 019°19'1615.7
2017-Feb-11 16:33N 60°13' E 019°01'  
Track history (hours):
 
Tides and Currents Weather Stations Pressure Air Temp Water Temp Dewpoint Dewpoint Depression Visibility Wind Speed Wind Dir Waves Ship Positions

Suula

Last reported at 2017-Feb-21 06:06 UTC. Time now 2017-Feb-21 12:18 UTC.
Position N 56°07' E 016°52'.

Length 140 m; draft 6.5 m.

Type: Tanker. MMSI: 230956996.

Date/timePositionNaut miles runAvg speedWind from/ knotsBaromVisibWave heightAir tempDewpointWater temp
2017-Feb-21 06:06N 56°07' E 016°52'814.0
2017-Feb-21 05:33N 56°02' E 016°41'1413.8
2017-Feb-21 04:34N 55°55' E 016°19'1414.0
2017-Feb-21 03:33N 55°49' E 015°57'1414.1
2017-Feb-21 02:33N 55°42' E 015°35'1414.1
2017-Feb-21 01:33N 55°34' E 015°14'1414.1
2017-Feb-21 00:33N 55°27' E 014°53'1413.9
2017-Feb-20 23:33N 55°19' E 014°33'1414.1
2017-Feb-20 22:34N 55°08' E 014°17'1313.3
2017-Feb-20 21:33N 54°59' E 013°60'1413.8
2017-Feb-20 20:33N 54°55' E 013°37'2713.7
2017-Feb-20 18:33N 54°46' E 012°52'1413.8
2017-Feb-20 17:34N 54°39' E 012°31'1713.3
2017-Feb-20 16:17N 54°26' E 012°13'1013.9
2017-Feb-20 15:33N 54°25' E 011°56'1413.8
2017-Feb-20 14:33N 54°29' E 011°33'1414.4
2017-Feb-20 13:33N 54°35' E 011°11'1413.7
2017-Feb-20 12:33N 54°43' E 010°52'1413.6
2017-Feb-20 11:34N 54°57' E 010°56'1413.7
2017-Feb-20 10:34N 55°10' E 011°03'4 0.2
2017-Feb-19 08:30N 55°13' E 011°06'1212.8
2017-Feb-19 07:33N 55°02' E 011°02'1212.2
2017-Feb-19 06:33N 54°51' E 010°53'1211.6
2017-Feb-19 05:33N 54°40' E 011°00'1313.0
2017-Feb-19 04:33N 54°33' E 011°20'1513.2
2017-Feb-19 03:25N 54°27' E 011°43'1213.2
2017-Feb-19 02:31N 54°27' E 012°03'1010.8
2017-Feb-19 01:34N 54°35' E 012°15'1312.8
2017-Feb-19 00:34N 54°43' E 012°32'4013.4
2017-Feb-18 21:33N 54°58' E 013°36'1313.2
2017-Feb-18 20:33N 55°03' E 013°58'1313.0
2017-Feb-18 19:33N 55°12' E 014°14'1413.6
2017-Feb-18 18:34N 55°22' E 014°30'1413.6
2017-Feb-18 17:33N 55°30' E 014°49'1413.8
2017-Feb-18 16:34N 55°37' E 015°10'1413.7
2017-Feb-18 15:33N 55°44' E 015°31'1413.8
2017-Feb-18 14:33N 55°51' E 015°52'1413.6
2017-Feb-18 13:33N 55°58' E 016°14'1413.7
2017-Feb-18 12:33N 56°05' E 016°35'1413.6
2017-Feb-18 11:33N 56°13' E 016°55'1413.7
2017-Feb-18 10:33N 56°21' E 017°14'1614.0
2017-Feb-18 09:24N 56°31' E 017°38'1314.3
2017-Feb-18 08:30N 56°38' E 017°56'25014.0
2017-Feb-17 14:33N 59°39' E 023°25'1414.0
2017-Feb-17 13:32N 59°43' E 023°52'62 3.0
2017-Feb-16 17:15N 60°18' E 025°33'0 0.0
2017-Feb-16 16:04N 60°18' E 025°33'2 3.8
2017-Feb-16 15:26N 60°16' E 025°32'5 4.3
2017-Feb-16 14:14N 60°12' E 025°37'5 5.9
2017-Feb-16 13:21N 60°16' E 025°33'2 1.2
2017-Feb-16 11:30N 60°18' E 025°33'0 0.0
2017-Feb-16 10:24N 60°18' E 025°33'0 0.0
2017-Feb-16 01:06N 60°18' E 025°33'0 0.0
2017-Feb-16 00:15N 60°18' E 025°33'0 0.4
2017-Feb-15 23:30N 60°18' E 025°33'14 1.2
2017-Feb-15 12:25N 60°11' E 025°57'1011.2
2017-Feb-15 11:33N 60°16' E 026°14'1413.6
2017-Feb-15 10:33N 60°21' E 026°40'1414.2
2017-Feb-15 09:34N 60°21' E 027°08'1110.6
2017-Feb-15 08:33N 60°31' E 027°10'0 0.0
2017-Feb-15 07:33N 60°31' E 027°10'0 0.0
2017-Feb-15 06:33N 60°31' E 027°10'0 0.0
2017-Feb-15 05:33N 60°31' E 027°10'0 0.0
2017-Feb-15 04:33N 60°31' E 027°10'0 0.0
2017-Feb-15 03:33N 60°31' E 027°10'0 0.0
2017-Feb-15 02:33N 60°31' E 027°10'0 0.0
2017-Feb-15 01:33N 60°31' E 027°10'0 0.0
2017-Feb-15 00:33N 60°31' E 027°10'0 0.0
2017-Feb-14 23:33N 60°31' E 027°10'0 0.0
2017-Feb-14 22:33N 60°31' E 027°10'0 0.0
2017-Feb-14 21:33N 60°31' E 027°10'0 0.0
2017-Feb-14 20:30N 60°31' E 027°10'0 0.0
2017-Feb-14 19:33N 60°31' E 027°10'0 0.0
2017-Feb-14 18:33N 60°31' E 027°10'0 0.0
2017-Feb-14 17:33N 60°31' E 027°10'0 0.0
2017-Feb-14 16:33N 60°31' E 027°10'0 0.0
2017-Feb-14 15:33N 60°31' E 027°10'0 0.0
2017-Feb-14 14:33N 60°31' E 027°10'0 0.0
2017-Feb-14 13:33N 60°31' E 027°10'0 0.0
2017-Feb-14 12:33N 60°31' E 027°10'0 0.0
2017-Feb-14 11:30N 60°31' E 027°10'0 0.0
2017-Feb-14 10:33N 60°31' E 027°10'0 0.0
2017-Feb-14 09:33N 60°31' E 027°10'0 0.0
2017-Feb-14 08:33N 60°31' E 027°10'0 0.0
2017-Feb-14 07:33N 60°31' E 027°10'0 0.0
2017-Feb-14 06:33N 60°31' E 027°10'0 0.0
2017-Feb-14 05:32N 60°31' E 027°10'0 0.0
2017-Feb-14 04:32N 60°31' E 027°10'0 0.0
2017-Feb-14 03:32N 60°31' E 027°10'0 0.0
2017-Feb-14 02:32N 60°31' E 027°10'0 0.0
2017-Feb-14 01:32N 60°31' E 027°10'0 0.0
2017-Feb-14 00:32N 60°31' E 027°10'0 0.0
2017-Feb-13 23:32N 60°31' E 027°10'0 0.4
2017-Feb-13 22:33N 60°31' E 027°10'0 0.2
2017-Feb-13 21:33N 60°31' E 027°10'0 0.0
2017-Feb-13 20:33N 60°31' E 027°10'0 0.0
2017-Feb-13 19:33N 60°31' E 027°10'0 0.0
2017-Feb-13 18:33N 60°31' E 027°10'0 0.0
2017-Feb-13 17:33N 60°31' E 027°10'0 0.0
2017-Feb-13 16:33N 60°31' E 027°10'0 0.0
2017-Feb-13 15:33N 60°31' E 027°10'0 0.0
2017-Feb-13 14:33N 60°31' E 027°10'0 0.0
2017-Feb-13 13:33N 60°31' E 027°10'0 0.0
2017-Feb-13 12:30N 60°31' E 027°10'0 0.0
2017-Feb-13 11:33N 60°31' E 027°10'0 0.0
2017-Feb-13 10:33N 60°31' E 027°10'1 0.5
2017-Feb-13 09:33N 60°31' E 027°09'1010.4
2017-Feb-13 08:33N 60°21' E 027°00'1413.8
2017-Feb-13 07:33N 60°18' E 026°33'1615.0
2017-Feb-13 06:31N 60°06' E 026°13'18 0.8
2017-Feb-12 09:05N 60°10' E 025°38'7 7.1
2017-Feb-12 08:05N 60°04' E 025°35'6 7.8
2017-Feb-12 07:17N 59°58' E 025°29'4812.8
2017-Feb-12 03:33N 59°40' E 024°02'1515.5
2017-Feb-12 02:33N 59°35' E 023°33'6215.0
2017-Feb-11 22:26N 59°30' E 021°31'5915.3
2017-Feb-11 18:34N 59°48' E 019°39'1616.0
2017-Feb-11 17:33N 60°00' E 019°19'1615.7
2017-Feb-11 16:33N 60°13' E 019°01'  

Dump ship's entire track history